Time;durP1;ratioP1;P1;durP2;ratioP2;P2;SDS_P1;SDS_P2;PMS_P1;PMS_P2;Temp;Humidity;BMP_temperature;BMP_pressure;BME280_temperature;BME280_humidity;BME280_pressure;Samples;Min_cycle;Max_cycle;Signal;HPM_P1;HPM_P2
2023/05/30 00:02:10;;;;;;;;;;;;;;;27.77;25.06;98289.16;5068948;28;19920;-83
2023/05/30 00:04:36;;;;;;;;;;;;;;;27.74;24.94;98289.31;5074193;28;19920;-83
2023/05/30 00:07:02;;;;;;;;;;;;;;;27.69;24.57;98293.50;5073313;28;19917;-83
2023/05/30 00:09:29;;;;;;;;;;;;;;;27.72;24.65;98298.22;5066433;28;19957;-84
2023/05/30 00:11:55;;;;;;;;;;;;;;;27.75;25.04;98288.06;5053362;28;19940;-84
2023/05/30 00:14:21;;;;;;;;;;;;;;;27.64;24.94;98291.22;5058687;28;19920;-83
2023/05/30 00:16:47;;;;;;;;;;;;;;;27.65;24.52;98295.66;5073267;28;19999;-83
2023/05/30 00:19:13;;;;;;;;;;;;;;;27.63;24.28;98286.06;5065037;28;19920;-83
2023/05/30 00:21:39;;;;;;;;;;;;;;;27.21;24.95;98291.78;5065360;28;20322;-84
2023/05/30 00:24:05;;;;;;;;;;;;;;;27.38;24.97;98293.28;5073167;28;20269;-83
2023/05/30 00:26:31;;;;;;;;;;;;;;;27.02;25.14;98300.47;5066109;28;19924;-82
2023/05/30 00:28:57;;;;;;;;;;;;;;;27.00;25.02;98291.66;5053143;28;19967;-83
2023/05/30 00:31:24;;;;;;;;;;;;;;;26.91;25.56;98294.34;5052870;28;19924;-83
2023/05/30 00:33:50;;;;;;;;;;;;;;;27.04;25.35;98295.16;5052976;28;19923;-83
2023/05/30 00:36:16;;;;;;;;;;;;;;;26.99;25.52;98290.88;5067912;28;19928;-83
2023/05/30 00:38:42;;;;;;;;;;;;;;;27.23;25.28;98302.63;5071128;28;19920;-83
2023/05/30 00:41:08;;;;;;;;;;;;;;;27.34;25.26;98297.44;5071390;28;19927;-83
2023/05/30 00:43:35;;;;;;;;;;;;;;;27.42;25.00;98298.03;5064475;28;19978;-83
2023/05/30 00:46:04;;;;;;;;;;;;;;;27.45;24.84;98300.72;5071077;28;20372;-84
2023/05/30 00:48:30;;;;;;;;;;;;;;;27.52;24.73;98305.34;5072333;28;19927;-84
2023/05/30 00:50:56;;;;;;;;;;;;;;;27.55;24.33;98298.81;5066470;28;19920;-83
2023/05/30 00:53:22;;;;;;;;;;;;;;;27.57;24.50;98294.28;5071728;28;19927;-83
2023/05/30 00:55:49;;;;;;;;;;;;;;;27.32;25.01;98300.72;5070465;28;19921;-84
2023/05/30 00:58:15;;;;;;;;;;;;;;;27.21;25.28;98302.28;5074045;28;20011;-84
2023/05/30 01:00:41;;;;;;;;;;;;;;;27.30;25.07;98306.00;5075225;28;19942;-84
2023/05/30 01:03:08;;;;;;;;;;;;;;;27.44;24.28;98316.09;5076013;28;19924;-84
2023/05/30 01:05:35;;;;;;;;;;;;;;;27.47;24.60;98314.38;5070880;28;19939;-84
2023/05/30 01:08:01;;;;;;;;;;;;;;;27.47;24.45;98314.38;5075743;28;20375;-84
2023/05/30 01:10:29;;;;;;;;;;;;;;;27.55;24.54;98305.25;5075233;28;19917;-84
2023/05/30 01:13:04;;;;;;;;;;;;;;;27.09;24.27;98314.34;5075453;28;19921;-84
2023/05/30 01:15:36;;;;;;;;;;;;;;;26.70;24.98;98310.59;5075286;28;19921;-83
2023/05/30 01:18:15;;;;;;;;;;;;;;;26.49;25.50;98319.66;5066513;28;20451;-83
2023/05/30 01:20:42;;;;;;;;;;;;;;;26.68;25.23;98312.28;5059117;28;19921;-83
2023/05/30 01:23:26;;;;;;;;;;;;;;;26.80;25.10;98319.22;5074890;28;19925;-84
2023/05/30 01:26:01;;;;;;;;;;;;;;;26.91;25.66;98319.72;5073951;28;20449;-84
2023/05/30 01:28:32;;;;;;;;;;;;;;;27.03;25.32;98314.09;5061778;28;20019;-84
2023/05/30 01:30:59;;;;;;;;;;;;;;;27.13;24.93;98317.81;5075116;28;19920;-84
2023/05/30 01:33:29;;;;;;;;;;;;;;;26.96;25.17;98321.97;5075641;28;19921;-84
2023/05/30 01:35:55;;;;;;;;;;;;;;;26.85;26.03;98316.66;5057778;28;19928;-84
2023/05/30 01:38:21;;;;;;;;;;;;;;;26.82;25.57;98311.91;5070073;28;19959;-84
2023/05/30 01:40:51;;;;;;;;;;;;;;;27.04;25.30;98312.06;5063504;28;19924;-83
2023/05/30 01:43:23;;;;;;;;;;;;;;;27.32;25.11;98316.84;5074196;28;19925;-83
2023/05/30 01:45:49;;;;;;;;;;;;;;;27.47;24.79;98309.53;5068617;28;20027;-83
2023/05/30 01:48:26;;;;;;;;;;;;;;;27.26;24.87;98312.97;5074671;28;20292;-84
2023/05/30 01:50:55;;;;;;;;;;;;;;;27.22;24.82;98304.66;5074455;28;19916;-83
2023/05/30 01:53:25;;;;;;;;;;;;;;;26.96;25.32;98303.03;5071390;28;19928;-83
2023/05/30 01:55:54;;;;;;;;;;;;;;;27.04;25.10;98301.59;5060010;28;20348;-83
2023/05/30 01:58:21;;;;;;;;;;;;;;;27.26;25.08;98310.16;5073995;28;19966;-84
2023/05/30 02:00:49;;;;;;;;;;;;;;;27.24;24.48;98307.81;5067057;28;20007;-83
2023/05/30 02:03:15;;;;;;;;;;;;;;;27.35;24.56;98301.84;5074915;28;19973;-83
2023/05/30 02:05:41;;;;;;;;;;;;;;;27.03;24.86;98313.28;5073609;28;20388;-84
2023/05/30 02:08:07;;;;;;;;;;;;;;;26.84;24.84;98317.13;5068573;28;19925;-83
2023/05/30 02:10:34;;;;;;;;;;;;;;;27.08;24.78;98309.91;5072405;28;19939;-84
2023/05/30 02:13:00;;;;;;;;;;;;;;;27.12;24.74;98316.25;5075251;28;20283;-84
2023/05/30 02:15:26;;;;;;;;;;;;;;;27.17;24.73;98312.84;5075038;28;19912;-83
2023/05/30 02:17:52;;;;;;;;;;;;;;;27.22;24.85;98310.28;5073179;28;19920;-83
2023/05/30 02:20:18;;;;;;;;;;;;;;;27.15;24.60;98310.50;5059679;28;19928;-83
2023/05/30 02:22:44;;;;;;;;;;;;;;;26.73;24.98;98308.94;5072038;28;19924;-83
2023/05/30 02:25:10;;;;;;;;;;;;;;;26.70;25.34;98309.81;5070640;28;19917;-84
2023/05/30 02:27:36;;;;;;;;;;;;;;;26.91;24.98;98314.09;5062433;28;19916;-83
2023/05/30 02:30:02;;;;;;;;;;;;;;;26.89;25.18;98313.72;5074525;28;19921;-83
2023/05/30 02:32:28;;;;;;;;;;;;;;;26.90;25.83;98313.28;5066992;28;19920;-84
2023/05/30 02:34:54;;;;;;;;;;;;;;;27.07;25.13;98317.59;5074410;28;20003;-84
2023/05/30 02:37:20;;;;;;;;;;;;;;;27.18;24.90;98315.25;5073969;28;20031;-84
2023/05/30 02:39:46;;;;;;;;;;;;;;;27.28;24.81;98316.94;5074714;28;20041;-84
2023/05/30 02:42:13;;;;;;;;;;;;;;;27.05;25.10;98316.47;5069470;28;20307;-83
2023/05/30 02:44:39;;;;;;;;;;;;;;;26.95;25.45;98314.75;5074050;28;20245;-83
2023/05/30 02:47:05;;;;;;;;;;;;;;;27.20;25.05;98320.44;5074457;28;19916;-83
2023/05/30 02:49:31;;;;;;;;;;;;;;;27.17;24.90;98319.28;5074315;28;20359;-84
2023/05/30 02:51:57;;;;;;;;;;;;;;;27.17;25.05;98324.13;5063120;28;19916;-83
2023/05/30 02:54:23;;;;;;;;;;;;;;;27.30;24.84;98319.31;5064216;28;19917;-83
2023/05/30 02:56:49;;;;;;;;;;;;;;;27.43;24.97;98322.94;5074306;28;19916;-83
2023/05/30 02:59:15;;;;;;;;;;;;;;;27.57;24.76;98325.31;5055848;28;19948;-83
2023/05/30 03:01:41;;;;;;;;;;;;;;;27.61;24.69;98319.56;5053970;28;20395;-84
2023/05/30 03:04:07;;;;;;;;;;;;;;;27.46;24.99;98327.69;5054153;28;19993;-83
2023/05/30 03:06:35;;;;;;;;;;;;;;;27.26;25.16;98315.78;5069620;28;20365;-83
2023/05/30 03:09:02;;;;;;;;;;;;;;;27.51;25.21;98313.03;5068508;28;19978;-84
2023/05/30 03:11:27;;;;;;;;;;;;;;;27.37;25.33;98314.28;5075014;28;19948;-83
2023/05/30 03:13:54;;;;;;;;;;;;;;;27.54;25.08;98320.56;5073702;28;19916;-83
2023/05/30 03:16:20;;;;;;;;;;;;;;;27.62;25.04;98323.97;5068651;28;20380;-83
2023/05/30 03:18:46;;;;;;;;;;;;;;;27.76;24.88;98313.00;5060856;28;19923;-83
2023/05/30 03:21:12;;;;;;;;;;;;;;;27.73;25.10;98318.75;5073758;28;19917;-82
2023/05/30 03:23:38;;;;;;;;;;;;;;;27.81;25.02;98320.09;5072571;28;19928;-83
2023/05/30 03:26:04;;;;;;;;;;;;;;;27.86;24.80;98314.69;5068507;28;19920;-84
2023/05/30 03:28:30;;;;;;;;;;;;;;;28.00;24.91;98327.56;5064513;28;19921;-84
2023/05/30 03:30:57;;;;;;;;;;;;;;;28.13;24.77;98325.47;5065339;28;20066;-83
2023/05/30 03:33:23;;;;;;;;;;;;;;;28.24;24.66;98330.78;5064990;28;19920;-84
2023/05/30 03:35:49;;;;;;;;;;;;;;;28.39;24.88;98332.63;5053655;28;20316;-84
2023/05/30 03:38:15;;;;;;;;;;;;;;;28.29;25.13;98339.44;5063585;28;19928;-84
2023/05/30 03:40:41;;;;;;;;;;;;;;;28.08;25.09;98337.34;5073671;28;19920;-83
2023/05/30 03:43:07;;;;;;;;;;;;;;;27.83;25.12;98337.38;5073398;28;20418;-84
2023/05/30 03:45:33;;;;;;;;;;;;;;;27.56;25.76;98343.50;5072587;28;19928;-84
2023/05/30 03:47:59;;;;;;;;;;;;;;;27.47;25.87;98346.19;5071516;28;19923;-84
2023/05/30 03:50:25;;;;;;;;;;;;;;;27.48;25.87;98350.59;5065684;28;19920;-83
2023/05/30 03:52:51;;;;;;;;;;;;;;;27.83;25.89;98345.84;5073322;28;19939;-84
2023/05/30 03:55:17;;;;;;;;;;;;;;;28.18;25.60;98343.88;5071239;28;20380;-84
2023/05/30 03:57:43;;;;;;;;;;;;;;;28.30;25.39;98343.06;5067822;28;19917;-83
2023/05/30 04:00:09;;;;;;;;;;;;;;;28.40;25.69;98347.56;5068800;28;19924;-84
2023/05/30 04:02:35;;;;;;;;;;;;;;;28.59;25.75;98347.25;5076664;28;19930;-84
2023/05/30 04:05:01;;;;;;;;;;;;;;;28.79;25.56;98349.00;5073056;28;19921;-83
2023/05/30 04:07:27;;;;;;;;;;;;;;;28.60;25.59;98342.41;5066162;28;20350;-84
2023/05/30 04:09:53;;;;;;;;;;;;;;;28.58;25.84;98345.66;5065734;28;19920;-83
2023/05/30 04:12:19;;;;;;;;;;;;;;;28.45;25.68;98350.56;5064100;28;19928;-83
2023/05/30 04:14:45;;;;;;;;;;;;;;;28.31;26.34;98358.78;5066815;28;19943;-84
2023/05/30 04:17:11;;;;;;;;;;;;;;;28.24;26.44;98368.25;5075699;28;20404;-84
2023/05/30 04:19:37;;;;;;;;;;;;;;;28.27;26.31;98367.34;5073633;28;19994;-84
2023/05/30 04:22:04;;;;;;;;;;;;;;;28.36;26.71;98377.94;5069679;28;20031;-84
2023/05/30 04:24:30;;;;;;;;;;;;;;;28.55;26.75;98372.00;5070812;28;20292;-86
2023/05/30 04:26:56;;;;;;;;;;;;;;;28.78;26.51;98378.53;5065479;28;19920;-86
2023/05/30 04:29:22;;;;;;;;;;;;;;;28.94;26.78;98378.31;5067291;28;19928;-86
2023/05/30 04:31:48;;;;;;;;;;;;;;;29.18;26.44;98383.06;5062669;28;19925;-85
2023/05/30 04:34:15;;;;;;;;;;;;;;;29.21;25.39;98379.31;5075134;28;19967;-84
2023/05/30 04:36:41;;;;;;;;;;;;;;;29.34;25.53;98384.88;5076129;28;20405;-84
2023/05/30 04:39:07;;;;;;;;;;;;;;;29.53;25.67;98388.59;5073295;28;19935;-83
2023/05/30 04:41:33;;;;;;;;;;;;;;;29.67;25.69;98388.03;5069658;28;19940;-83
2023/05/30 04:44:00;;;;;;;;;;;;;;;29.87;26.21;98392.06;5055631;28;20352;-84
2023/05/30 04:46:27;;;;;;;;;;;;;;;29.75;25.78;98390.13;5060303;28;20292;-84
2023/05/30 04:48:55;;;;;;;;;;;;;;;29.64;26.58;98386.91;5075244;28;19978;-83
2023/05/30 04:51:25;;;;;;;;;;;;;;;29.53;27.34;98394.25;5077206;28;19917;-83
2023/05/30 04:53:51;;;;;;;;;;;;;;;29.91;26.71;98392.75;5076474;28;19948;-82
2023/05/30 04:56:19;;;;;;;;;;;;;;;30.40;25.68;98389.91;5069156;28;19931;-82
2023/05/30 04:58:48;;;;;;;;;;;;;;;30.69;25.22;98389.47;5057705;28;19917;-83
2023/05/30 05:01:14;;;;;;;;;;;;;;;30.89;25.07;98389.81;5072680;28;19928;-83
2023/05/30 05:03:40;;;;;;;;;;;;;;;31.09;24.70;98386.47;5073448;28;19920;-83
2023/05/30 05:06:07;;;;;;;;;;;;;;;31.18;25.09;98392.13;5075879;28;19927;-83
2023/05/30 05:08:33;;;;;;;;;;;;;;;31.36;24.23;98394.94;5075121;28;20018;-83
2023/05/30 05:11:00;;;;;;;;;;;;;;;31.36;23.84;98401.41;5075791;28;20292;-83
2023/05/30 05:13:26;;;;;;;;;;;;;;;31.12;24.08;98396.88;5075831;28;19916;-83
2023/05/30 05:15:52;;;;;;;;;;;;;;;30.96;24.03;98398.00;5073626;28;19917;-83
2023/05/30 05:18:18;;;;;;;;;;;;;;;30.88;24.30;98396.72;5055713;28;20023;-83
2023/05/30 05:20:44;;;;;;;;;;;;;;;31.10;25.27;98403.03;5056069;28;19966;-83
2023/05/30 05:23:10;;;;;;;;;;;;;;;31.27;24.71;98406.31;5067715;28;20329;-83
2023/05/30 05:25:36;;;;;;;;;;;;;;;31.39;24.67;98408.19;5075442;28;20380;-83
2023/05/30 05:28:02;;;;;;;;;;;;;;;31.52;24.80;98408.81;5056023;28;20002;-83
2023/05/30 05:30:28;;;;;;;;;;;;;;;31.86;24.55;98402.66;5056150;28;19978;-83
2023/05/30 05:32:54;;;;;;;;;;;;;;;32.07;24.91;98409.38;5056840;28;20373;-83
2023/05/30 05:35:20;;;;;;;;;;;;;;;32.47;25.64;98414.69;5055587;28;19927;-83
2023/05/30 05:37:47;;;;;;;;;;;;;;;32.82;24.81;98406.41;5054793;28;20372;-82
2023/05/30 05:40:13;;;;;;;;;;;;;;;33.15;25.20;98413.56;5054958;28;19924;-82
2023/05/30 05:42:40;;;;;;;;;;;;;;;33.36;24.58;98408.78;5055087;28;19995;-83
2023/05/30 05:45:06;;;;;;;;;;;;;;;33.65;24.68;98402.34;5055798;28;19944;-83
2023/05/30 05:47:32;;;;;;;;;;;;;;;33.77;24.08;98410.56;5056588;28;19917;-83
2023/05/30 05:49:58;;;;;;;;;;;;;;;33.92;23.74;98410.53;5064746;28;19923;-83
2023/05/30 05:52:24;;;;;;;;;;;;;;;34.13;24.20;98408.56;5055522;28;19917;-83
2023/05/30 05:54:50;;;;;;;;;;;;;;;34.29;23.30;98408.81;5055084;28;19916;-83
2023/05/30 05:57:16;;;;;;;;;;;;;;;34.52;24.29;98416.41;5065470;28;20011;-83
2023/05/30 05:59:42;;;;;;;;;;;;;;;34.86;24.12;98414.00;5075344;28;19962;-83
2023/05/30 06:02:08;;;;;;;;;;;;;;;35.06;23.17;98414.78;5070813;28;20393;-83
2023/05/30 06:04:34;;;;;;;;;;;;;;;35.19;21.61;98420.13;5055206;28;20015;-83
2023/05/30 06:07:00;;;;;;;;;;;;;;;34.99;21.56;98412.34;5056001;28;19920;-83
2023/05/30 06:09:30;;;;;;;;;;;;;;;34.95;23.72;98408.13;5054883;28;20390;-83
2023/05/30 06:11:59;;;;;;;;;;;;;;;35.31;23.26;98416.09;5079153;28;20497;-83
2023/05/30 06:14:26;;;;;;;;;;;;;;;35.53;22.20;98415.56;5068653;28;19920;-83
2023/05/30 06:16:52;;;;;;;;;;;;;;;35.53;21.88;98410.63;5070150;28;20003;-83
2023/05/30 06:19:18;;;;;;;;;;;;;;;35.17;20.64;98417.75;5075188;28;19974;-81
2023/05/30 06:21:44;;;;;;;;;;;;;;;34.73;21.42;98418.00;5075030;28;19920;-82
2023/05/30 06:24:10;;;;;;;;;;;;;;;34.48;20.88;98424.38;5077006;28;20322;-82
2023/05/30 06:26:36;;;;;;;;;;;;;;;34.25;21.07;98428.19;5074938;28;19969;-82
2023/05/30 06:29:02;;;;;;;;;;;;;;;34.33;21.46;98428.56;5064627;28;19964;-83
2023/05/30 06:31:28;;;;;;;;;;;;;;;34.21;22.21;98429.69;5054739;28;20015;-83
2023/05/30 06:33:57;;;;;;;;;;;;;;;33.99;21.68;98427.22;5054632;28;19975;-83
2023/05/30 06:39:27;;;;;;;;;;;;;;;33.30;22.48;98434.28;5063861;28;19962;-82
2023/05/30 06:41:53;;;;;;;;;;;;;;;33.52;21.67;98441.66;5056380;28;19917;-83
2023/05/30 06:44:19;;;;;;;;;;;;;;;33.81;22.65;98444.56;5054440;28;19921;-83
2023/05/30 06:46:45;;;;;;;;;;;;;;;33.78;21.80;98451.22;5054634;28;19990;-83
2023/05/30 06:49:11;;;;;;;;;;;;;;;33.54;22.27;98450.56;5054422;28;19913;-83
2023/05/30 06:51:37;;;;;;;;;;;;;;;33.59;22.51;98450.66;5054070;28;19925;-83
2023/05/30 06:54:04;;;;;;;;;;;;;;;33.80;21.78;98445.81;5054130;28;19912;-82
2023/05/30 06:56:30;;;;;;;;;;;;;;;34.11;22.70;98451.03;5054170;28;19917;-83
2023/05/30 06:58:57;;;;;;;;;;;;;;;34.12;22.98;98450.56;5054900;28;20338;-82
2023/05/30 07:01:23;;;;;;;;;;;;;;;34.08;21.45;98449.94;5054268;28;19923;-82
2023/05/30 07:03:49;;;;;;;;;;;;;;;34.05;21.69;98445.25;5054102;28;19917;-82
2023/05/30 07:06:15;;;;;;;;;;;;;;;33.70;22.90;98455.78;5053973;28;19924;-82
2023/05/30 07:08:41;;;;;;;;;;;;;;;33.84;21.13;98452.13;5054429;28;20296;-82
2023/05/30 07:11:08;;;;;;;;;;;;;;;33.86;22.24;98455.28;5054136;28;19920;-83
2023/05/30 07:13:34;;;;;;;;;;;;;;;34.26;21.63;98458.25;5054028;28;19980;-83
2023/05/30 07:16:00;;;;;;;;;;;;;;;33.88;21.78;98450.66;5073084;28;19916;-82
2023/05/30 07:18:26;;;;;;;;;;;;;;;33.23;22.59;98457.47;5073745;28;19920;-82
2023/05/30 07:20:52;;;;;;;;;;;;;;;33.05;23.03;98454.00;5073637;28;19943;-82
2023/05/30 07:23:18;;;;;;;;;;;;;;;33.58;22.00;98451.94;5067947;28;19970;-82
2023/05/30 07:25:44;;;;;;;;;;;;;;;33.32;22.77;98453.75;5053776;28;20393;-82
2023/05/30 07:28:10;;;;;;;;;;;;;;;32.94;24.07;98459.41;5053493;28;19955;-82
2023/05/30 07:30:36;;;;;;;;;;;;;;;33.69;22.43;98454.19;5054011;28;19970;-82
2023/05/30 07:33:02;;;;;;;;;;;;;;;34.04;22.03;98453.00;5054012;28;20288;-82
2023/05/30 07:35:28;;;;;;;;;;;;;;;32.57;24.54;98462.53;5053376;28;19925;-82
2023/05/30 07:37:54;;;;;;;;;;;;;;;33.24;23.18;98453.34;5053599;28;19917;-82
2023/05/30 07:40:20;;;;;;;;;;;;;;;33.60;22.42;98448.59;5053769;28;19916;-83
2023/05/30 07:42:47;;;;;;;;;;;;;;;33.62;22.72;98461.06;5053549;28;19917;-82
2023/05/30 07:45:14;;;;;;;;;;;;;;;33.37;22.92;98453.84;5053463;28;19917;-82
2023/05/30 07:47:40;;;;;;;;;;;;;;;33.16;23.25;98455.00;5054328;28;20427;-82
2023/05/30 07:50:06;;;;;;;;;;;;;;;33.31;22.89;98461.50;5053381;28;19913;-82
2023/05/30 07:52:33;;;;;;;;;;;;;;;33.29;22.90;98464.03;5058624;28;19917;-82
2023/05/30 07:54:59;;;;;;;;;;;;;;;33.35;21.58;98464.94;5073276;28;20379;-82
2023/05/30 07:57:25;;;;;;;;;;;;;;;33.73;22.61;98461.25;5073492;28;20014;-82
2023/05/30 07:59:51;;;;;;;;;;;;;;;33.57;21.61;98463.81;5073475;28;19916;-83
2023/05/30 08:02:18;;;;;;;;;;;;;;;33.59;21.01;98462.03;5072050;28;19921;-83
2023/05/30 08:04:44;;;;;;;;;;;;;;;33.74;22.03;98465.69;5074355;28;20307;-82
2023/05/30 08:07:10;;;;;;;;;;;;;;;33.89;20.90;98462.81;5077732;28;19924;-82
2023/05/30 08:09:36;;;;;;;;;;;;;;;34.03;21.47;98462.03;5077511;28;20285;-82
2023/05/30 08:12:03;;;;;;;;;;;;;;;34.30;20.76;98458.84;5077698;28;19917;-83
2023/05/30 08:14:29;;;;;;;;;;;;;;;34.21;20.84;98467.53;5077312;28;19919;-82
2023/05/30 08:16:55;;;;;;;;;;;;;;;34.06;21.75;98464.69;5077314;28;19916;-82
2023/05/30 08:19:22;;;;;;;;;;;;;;;34.24;20.49;98472.22;5077399;28;19920;-82
2023/05/30 08:21:48;;;;;;;;;;;;;;;34.04;22.31;98464.41;5069376;28;19970;-82
2023/05/30 08:24:17;;;;;;;;;;;;;;;34.48;20.96;98460.66;5068388;28;20375;-82
2023/05/30 08:26:44;;;;;;;;;;;;;;;34.28;21.02;98464.28;5077352;28;19920;-82
2023/05/30 08:29:11;;;;;;;;;;;;;;;34.64;20.63;98460.94;5066015;28;19916;-82
2023/05/30 08:31:37;;;;;;;;;;;;;;;34.95;21.41;98466.00;5064571;28;19935;-82
2023/05/30 08:34:04;;;;;;;;;;;;;;;33.90;22.77;98465.19;5076700;28;20436;-82
2023/05/30 08:36:32;;;;;;;;;;;;;;;33.90;21.07;98464.38;5077164;28;20071;-83
2023/05/30 08:38:58;;;;;;;;;;;;;;;34.50;21.37;98470.28;5074300;28;19925;-83
2023/05/30 08:41:25;;;;;;;;;;;;;;;35.26;20.76;98457.59;5057166;28;19962;-83
2023/05/30 08:43:51;;;;;;;;;;;;;;;35.37;21.20;98466.28;5057130;28;20026;-82
2023/05/30 08:46:18;;;;;;;;;;;;;;;35.39;21.08;98465.75;5056716;28;19917;-82
2023/05/30 08:48:44;;;;;;;;;;;;;;;35.62;20.19;98473.31;5056542;28;20383;-83
2023/05/30 08:51:12;;;;;;;;;;;;;;;35.03;21.08;98475.72;5056995;28;19913;-82
2023/05/30 08:53:42;;;;;;;;;;;;;;;34.89;22.30;98472.94;5056566;28;20372;-82
2023/05/30 08:56:11;;;;;;;;;;;;;;;34.78;21.20;98469.91;5057573;28;19922;-82
2023/05/30 08:58:39;;;;;;;;;;;;;;;34.79;21.46;98483.69;5056816;28;20351;-82
2023/05/30 09:01:06;;;;;;;;;;;;;;;34.88;21.18;98471.34;5071302;28;20008;-82
2023/05/30 09:03:34;;;;;;;;;;;;;;;34.05;21.65;98482.31;5076264;28;19917;-83
2023/05/30 09:06:00;;;;;;;;;;;;;;;32.89;23.50;98489.31;5076091;28;19950;-82
2023/05/30 09:08:26;;;;;;;;;;;;;;;33.35;22.18;98486.94;5076466;28;19917;-82
2023/05/30 09:10:53;;;;;;;;;;;;;;;33.07;23.58;98494.91;5076651;28;19917;-83
2023/05/30 09:13:20;;;;;;;;;;;;;;;30.77;26.45;98496.41;5075438;28;19939;-82
2023/05/30 09:15:46;;;;;;;;;;;;;;;32.03;24.07;98494.81;5063623;28;19916;-82
2023/05/30 09:18:12;;;;;;;;;;;;;;;33.26;22.95;98493.47;5056137;28;19916;-82
2023/05/30 09:20:39;;;;;;;;;;;;;;;33.87;22.32;98486.09;5056226;28;20272;-82
2023/05/30 09:23:06;;;;;;;;;;;;;;;33.96;22.91;98485.22;5056063;28;20292;-82
2023/05/30 09:25:42;;;;;;;;;;;;;;;33.04;22.95;98490.19;5070620;28;20296;-82
2023/05/30 09:28:08;;;;;;;;;;;;;;;34.21;22.25;98481.78;5056223;28;19921;-82
2023/05/30 09:30:35;;;;;;;;;;;;;;;35.19;22.04;98474.38;5062289;28;19927;-82
2023/05/30 09:33:02;;;;;;;;;;;;;;;35.59;21.13;98470.69;5076241;28;20390;-83
2023/05/30 09:35:28;;;;;;;;;;;;;;;35.22;21.36;98476.19;5076013;28;19990;-83
2023/05/30 09:37:54;;;;;;;;;;;;;;;34.91;22.05;98462.59;5075321;28;19927;-82
2023/05/30 09:40:22;;;;;;;;;;;;;;;35.53;22.04;98467.75;5075740;28;19954;-82
2023/05/30 09:42:52;;;;;;;;;;;;;;;35.75;20.65;98470.06;5076142;28;19920;-82
2023/05/30 09:45:22;;;;;;;;;;;;;;;35.96;19.69;98475.19;5075854;28;19926;-82
2023/05/30 09:47:49;;;;;;;;;;;;;;;35.94;20.71;98463.47;5066630;28;20283;-82
2023/05/30 09:50:16;;;;;;;;;;;;;;;34.97;21.47;98468.34;5055797;28;19919;-82
2023/05/30 09:52:43;;;;;;;;;;;;;;;32.20;22.91;98463.97;5055571;28;19917;-84
2023/05/30 09:55:10;;;;;;;;;;;;;;;30.33;26.22;98477.25;5055708;28;19920;-83
2023/05/30 09:57:37;;;;;;;;;;;;;;;30.82;24.53;98468.69;5055340;28;19917;-83
2023/05/30 10:00:06;;;;;;;;;;;;;;;31.38;22.51;98477.53;5054776;28;20338;-82
2023/05/30 10:02:32;;;;;;;;;;;;;;;33.27;20.80;98474.34;5055606;28;20007;-83
2023/05/30 10:04:59;;;;;;;;;;;;;;;31.34;24.32;98483.38;5055832;28;19960;-83
2023/05/30 10:07:26;;;;;;;;;;;;;;;31.10;23.79;98478.81;5054982;28;19924;-82
2023/05/30 10:09:52;;;;;;;;;;;;;;;32.83;21.51;98477.03;5055218;28;20384;-82
2023/05/30 10:12:18;;;;;;;;;;;;;;;34.18;21.32;98474.22;5055137;28;19927;-82
2023/05/30 10:14:44;;;;;;;;;;;;;;;32.82;22.32;98486.03;5072093;28;19917;-82
2023/05/30 10:17:13;;;;;;;;;;;;;;;32.97;21.83;98482.00;5075415;28;19916;-82
2023/05/30 10:19:43;;;;;;;;;;;;;;;33.59;21.21;98476.28;5074791;28;19923;-82
2023/05/30 10:22:11;;;;;;;;;;;;;;;33.35;20.84;98475.56;5062155;28;19960;-82
2023/05/30 10:24:40;;;;;;;;;;;;;;;33.14;21.97;98482.38;5054956;28;20358;-82
2023/05/30 10:27:10;;;;;;;;;;;;;;;32.82;20.89;98489.69;5054442;28;19963;-82
2023/05/30 10:29:56;;;;;;;;;;;;;;;32.86;20.84;98484.59;5054404;28;19917;-82
2023/05/30 10:32:25;;;;;;;;;;;;;;;31.10;22.80;98482.44;5062249;28;19924;-82
2023/05/30 10:34:59;;;;;;;;;;;;;;;30.96;23.09;98490.78;5074708;28;19962;-82
2023/05/30 10:37:25;;;;;;;;;;;;;;;32.54;22.76;98474.84;5074670;28;19920;-82
2023/05/30 10:40:06;;;;;;;;;;;;;;;32.71;23.66;98492.28;5055741;28;19921;-82
2023/05/30 10:42:35;;;;;;;;;;;;;;;30.99;23.38;98484.97;5054330;28;19917;-81
2023/05/30 10:45:15;;;;;;;;;;;;;;;32.14;21.97;98476.47;5054446;28;19920;-82
2023/05/30 10:47:50;;;;;;;;;;;;;;;32.68;21.42;98479.03;5054773;28;19916;-82
2023/05/30 10:50:19;;;;;;;;;;;;;;;32.28;21.02;98473.69;5054374;28;19917;-82
2023/05/30 10:52:46;;;;;;;;;;;;;;;32.98;21.57;98469.34;5054386;28;20011;-82
2023/05/30 10:55:13;;;;;;;;;;;;;;;32.90;21.95;98467.34;5054817;28;20383;-82
2023/05/30 10:57:41;;;;;;;;;;;;;;;31.99;22.58;98468.63;5054219;28;19943;-82
2023/05/30 11:00:19;;;;;;;;;;;;;;;31.33;22.61;98463.97;5053789;28;19917;-82
2023/05/30 11:02:49;;;;;;;;;;;;;;;32.06;22.63;98467.50;5054475;28;20019;-83
2023/05/30 11:05:18;;;;;;;;;;;;;;;32.75;21.06;98468.09;5054017;28;19917;-82
2023/05/30 11:07:44;;;;;;;;;;;;;;;31.76;23.28;98472.16;5054328;28;19917;-82
2023/05/30 11:10:11;;;;;;;;;;;;;;;30.64;24.13;98473.06;5054110;28;19917;-82
2023/05/30 11:12:44;;;;;;;;;;;;;;;32.10;23.25;98456.72;5054167;28;19995;-82
2023/05/30 11:15:14;;;;;;;;;;;;;;;33.27;20.42;98452.38;5054135;28;20007;-82
2023/05/30 11:17:40;;;;;;;;;;;;;;;31.77;23.91;98461.56;5053782;28;19917;-82
2023/05/30 11:20:08;;;;;;;;;;;;;;;30.99;23.78;98458.66;5053998;28;20322;-82
2023/05/30 11:22:34;;;;;;;;;;;;;;;31.54;24.19;98454.53;5053569;28;19921;-83
2023/05/30 11:25:16;;;;;;;;;;;;;;;32.14;22.13;98471.53;5053720;28;19971;-82
2023/05/30 11:28:01;;;;;;;;;;;;;;;31.76;23.97;98457.94;5053831;28;19963;-82
2023/05/30 11:30:27;;;;;;;;;;;;;;;32.02;23.71;98461.97;5054008;28;20361;-82
2023/05/30 11:32:56;;;;;;;;;;;;;;;33.29;22.32;98452.66;5053539;28;19970;-82
2023/05/30 11:35:22;;;;;;;;;;;;;;;32.00;23.56;98455.19;5053869;28;19939;-83
2023/05/30 11:37:49;;;;;;;;;;;;;;;31.22;24.57;98455.19;5053355;28;19969;-83
2023/05/30 11:40:15;;;;;;;;;;;;;;;31.03;25.14;98459.28;5052945;28;20300;-83
2023/05/30 11:42:41;;;;;;;;;;;;;;;31.73;23.32;98460.94;5053265;28;19916;-83
2023/05/30 11:45:08;;;;;;;;;;;;;;;32.69;22.29;98461.50;5053391;28;19924;-82
2023/05/30 11:47:34;;;;;;;;;;;;;;;32.34;21.48;98459.63;5054020;28;19960;-82
2023/05/30 11:50:00;;;;;;;;;;;;;;;32.39;21.84;98458.97;5069027;28;19921;-83
2023/05/30 11:52:26;;;;;;;;;;;;;;;31.68;23.00;98464.44;5053629;28;19924;-82
2023/05/30 11:55:00;;;;;;;;;;;;;;;32.82;20.27;98458.41;5053350;28;19960;-82
2023/05/30 11:57:27;;;;;;;;;;;;;;;34.28;20.49;98460.63;5053166;28;19920;-82
2023/05/30 11:59:54;;;;;;;;;;;;;;;34.00;20.38;98445.91;5053544;28;19916;-82
2023/05/30 12:02:25;;;;;;;;;;;;;;;34.31;20.46;98449.00;5053233;28;19921;-83
2023/05/30 12:04:58;;;;;;;;;;;;;;;33.49;20.37;98454.84;5053670;28;19923;-82
2023/05/30 12:07:24;;;;;;;;;;;;;;;34.95;19.89;98448.09;5053166;28;19917;-82
2023/05/30 12:09:50;;;;;;;;;;;;;;;35.09;18.33;98448.03;5053471;28;19920;-82
2023/05/30 12:12:16;;;;;;;;;;;;;;;36.01;18.73;98445.13;5063496;28;19916;-82
2023/05/30 12:14:42;;;;;;;;;;;;;;;35.89;19.30;98447.06;5093335;28;19920;-83
2023/05/30 12:17:11;;;;;;;;;;;;;;;33.06;21.70;98459.19;5093480;28;20333;-83
2023/05/30 12:19:37;;;;;;;;;;;;;;;32.35;22.31;98449.84;5092935;28;19916;-83
2023/05/30 12:22:06;;;;;;;;;;;;;;;31.98;22.43;98455.69;5073069;28;20007;-83
2023/05/30 12:24:36;;;;;;;;;;;;;;;32.20;21.85;98457.47;5073094;28;19920;-83
2023/05/30 12:27:04;;;;;;;;;;;;;;;32.27;22.67;98457.13;5072835;28;20000;-83
2023/05/30 12:29:31;;;;;;;;;;;;;;;32.81;22.06;98462.53;5065363;28;19944;-82
2023/05/30 12:31:57;;;;;;;;;;;;;;;33.31;21.35;98460.69;5052994;28;20273;-82
2023/05/30 12:34:23;;;;;;;;;;;;;;;33.12;21.27;98450.75;5053030;28;19927;-82
2023/05/30 12:36:55;;;;;;;;;;;;;;;33.63;20.51;98456.16;5055688;28;19927;-83
2023/05/30 12:39:21;;;;;;;;;;;;;;;33.00;21.21;98458.25;5072843;28;19966;-83
2023/05/30 12:41:47;;;;;;;;;;;;;;;33.53;20.25;98449.78;5072795;28;19916;-83
2023/05/30 12:44:17;;;;;;;;;;;;;;;34.47;21.28;98450.56;5072756;28;19969;-83
2023/05/30 12:46:43;;;;;;;;;;;;;;;34.89;19.77;98444.41;5073137;28;19928;-82
2023/05/30 12:49:10;;;;;;;;;;;;;;;34.93;19.39;98454.31;5073134;28;19963;-82
2023/05/30 12:51:37;;;;;;;;;;;;;;;33.66;20.19;98455.16;5076018;28;19920;-83